Amery, Wisconsin
Current Conditions -  °F | °C
As of 8:35 PM on Friday 24 Oct 2014 (Local Time) from KRNH Reporting Station
Haze Haze  
Wind Chill: 11°   Ceiling: 700
Heat Index: 11°   Visibility: 1.5mi
Dew Point: 11°   Wind: 5mph
Humidity: 100%   Direction: 190°S
Pressure: 29.86"   Gusts: NA
Location:  45.31°N, 92.36°W
Report Text: KRNH 250135Z AUTO 19004KT 1 1/2SM BR VV007 11/11 A2986 RMK AO2 T01090109
Loading
Personal Weather Stations






























Interactive Weather Map
Tropical Storm Tracking
New forecast layout! Learn more

10-Day Weather Forecast

Advertisements
Track Severe Weather on mobile